createdAt,value
2023-04-29T00:03:27.602Z,14.50
2023-04-29T00:07:28.951Z,14.50
2023-04-29T00:11:30.138Z,14.40
2023-04-29T00:15:31.286Z,14.50
2023-04-29T00:19:32.930Z,14.60
2023-04-29T00:23:34.311Z,14.70
2023-04-29T00:27:35.471Z,14.70
2023-04-29T00:31:37.457Z,14.60
2023-04-29T00:35:38.988Z,14.30
2023-04-29T00:39:40.177Z,14.20
2023-04-29T00:43:41.345Z,14.00
2023-04-29T00:47:42.570Z,14.00
2023-04-29T00:51:44.001Z,14.00
2023-04-29T00:55:46.866Z,13.90
2023-04-29T00:59:49.655Z,14.10
2023-04-29T01:03:50.988Z,14.30
2023-04-29T01:08:05.611Z,14.20
2023-04-29T01:12:39.792Z,14.20
2023-04-29T01:16:48.647Z,14.20
2023-04-29T01:20:52.411Z,14.20
2023-04-29T01:24:54.358Z,14.20
2023-04-29T01:29:11.174Z,14.30
2023-04-29T01:33:31.434Z,14.30
2023-04-29T01:37:42.569Z,14.40
2023-04-29T01:41:48.036Z,14.50
2023-04-29T01:45:50.824Z,14.60
2023-04-29T01:49:52.309Z,14.70
2023-04-29T01:53:53.605Z,14.70
2023-04-29T01:57:54.891Z,14.70
2023-04-29T02:01:57.979Z,14.60
2023-04-29T02:05:59.155Z,14.70
2023-04-29T02:10:00.243Z,14.70
2023-04-29T02:14:01.492Z,14.90
2023-04-29T02:18:02.717Z,14.90
2023-04-29T02:22:03.830Z,14.90
2023-04-29T02:26:06.228Z,15.00
2023-04-29T02:30:09.304Z,14.90
2023-04-29T02:34:10.452Z,14.90
2023-04-29T02:38:13.524Z,15.00
2023-04-29T02:42:14.680Z,14.90
2023-04-29T02:46:18.006Z,15.00
2023-04-29T02:50:19.523Z,14.90
2023-04-29T02:54:20.871Z,15.00
2023-04-29T02:58:22.027Z,14.90
2023-04-29T03:02:23.273Z,15.00
2023-04-29T03:06:25.217Z,15.00
2023-04-29T03:10:26.408Z,14.90
2023-04-29T03:14:27.654Z,15.00
2023-04-29T03:18:28.824Z,15.00
2023-04-29T03:22:29.978Z,15.00
2023-04-29T03:26:31.226Z,15.00
2023-04-29T03:30:32.468Z,15.00
2023-04-29T03:34:33.612Z,15.00
2023-04-29T03:38:35.069Z,15.00
2023-04-29T03:42:36.222Z,14.90
2023-04-29T03:46:37.480Z,15.00
2023-04-29T03:50:38.837Z,15.00
2023-04-29T03:54:40.596Z,14.90
2023-04-29T03:58:41.775Z,15.00
2023-04-29T04:02:43.114Z,14.90
2023-04-29T04:06:46.310Z,14.90
2023-04-29T04:10:47.382Z,14.90
2023-04-29T04:14:48.535Z,14.80
2023-04-29T04:18:49.683Z,15.00
2023-04-29T04:22:50.877Z,15.00
2023-04-29T04:26:52.026Z,15.00
2023-04-29T04:30:53.178Z,14.90
2023-04-29T04:34:54.579Z,14.90
2023-04-29T04:38:55.645Z,15.00
2023-04-29T04:42:56.788Z,14.90
2023-04-29T04:46:57.949Z,14.90
2023-04-29T04:50:59.300Z,15.00
2023-04-29T04:55:01.521Z,14.90
2023-04-29T04:59:03.192Z,15.00
2023-04-29T05:03:04.466Z,15.20
2023-04-29T05:07:05.717Z,15.30
2023-04-29T05:11:15.504Z,15.50
2023-04-29T05:15:18.457Z,15.60
2023-04-29T05:19:19.803Z,15.60
2023-04-29T05:23:22.375Z,15.40
2023-04-29T05:27:23.613Z,15.00
2023-04-29T05:31:25.647Z,14.90
2023-04-29T05:35:27.112Z,14.90
2023-04-29T05:39:28.293Z,14.90
2023-04-29T05:43:29.475Z,15.10
2023-04-29T05:47:30.753Z,14.90
2023-04-29T05:51:31.970Z,15.00
2023-04-29T05:55:33.134Z,14.90
2023-04-29T05:59:35.357Z,15.00
2023-04-29T06:03:36.617Z,14.90
2023-04-29T06:07:38.944Z,14.60
2023-04-29T06:11:40.601Z,14.40
2023-04-29T06:15:41.846Z,14.60
2023-04-29T06:19:43.247Z,14.80
2023-04-29T06:23:44.509Z,14.80
2023-04-29T06:27:45.705Z,14.70
2023-04-29T06:31:46.910Z,14.80
2023-04-29T06:35:48.043Z,15.10
2023-04-29T06:39:49.227Z,15.30
2023-04-29T06:43:50.411Z,15.20
2023-04-29T06:47:51.482Z,15.40
2023-04-29T06:51:53.178Z,15.70
2023-04-29T06:55:54.326Z,16.00
2023-04-29T06:59:55.753Z,16.20
2023-04-29T07:03:57.014Z,16.20
2023-04-29T07:07:58.350Z,15.90
2023-04-29T07:12:00.404Z,15.70
2023-04-29T07:16:01.578Z,15.30
2023-04-29T07:20:03.713Z,15.30
2023-04-29T07:24:05.310Z,15.60
2023-04-29T07:28:08.281Z,15.90
2023-04-29T07:32:09.487Z,15.80
2023-04-29T07:36:10.726Z,15.60
2023-04-29T07:40:12.524Z,15.50
2023-04-29T07:44:13.668Z,16.00
2023-04-29T07:48:15.024Z,16.20
2023-04-29T07:52:16.255Z,16.20
2023-04-29T07:56:18.318Z,16.40
2023-04-29T08:00:19.501Z,16.30
2023-04-29T08:04:21.004Z,16.30
2023-04-29T08:08:22.432Z,16.20
2023-04-29T08:12:23.610Z,16.20
2023-04-29T08:16:26.469Z,16.20
2023-04-29T08:20:28.173Z,16.10
2023-04-29T08:24:29.658Z,16.10
2023-04-29T08:28:31.686Z,16.10
2023-04-29T08:32:34.529Z,16.20
2023-04-29T08:36:37.578Z,16.10
2023-04-29T08:40:45.192Z,16.00
2023-04-29T08:44:46.561Z,16.10
2023-04-29T08:48:48.620Z,16.20
2023-04-29T08:52:51.403Z,16.20
2023-04-29T08:56:54.871Z,16.20
2023-04-29T09:00:56.743Z,16.10
2023-04-29T09:05:08.465Z,16.10
2023-04-29T09:09:10.912Z,16.20
2023-04-29T09:13:29.730Z,16.40
2023-04-29T09:17:40.229Z,16.50
2023-04-29T09:21:43.307Z,16.30
2023-04-29T09:25:48.781Z,16.10
2023-04-29T09:30:02.315Z,16.30
2023-04-29T09:34:03.594Z,16.10
2023-04-29T09:38:15.401Z,15.80
2023-04-29T09:42:16.982Z,15.80
2023-04-29T09:46:18.178Z,15.70
2023-04-29T09:50:19.626Z,16.10
2023-04-29T09:54:25.682Z,16.60
2023-04-29T09:58:33.896Z,16.90
2023-04-29T10:02:36.288Z,17.00
2023-04-29T10:06:40.521Z,17.10
2023-04-29T10:10:42.778Z,16.70
2023-04-29T10:14:56.768Z,16.70
2023-04-29T10:19:02.947Z,16.80
2023-04-29T10:23:04.982Z,16.90
2023-04-29T10:27:11.977Z,16.80
2023-04-29T10:31:16.081Z,16.90
2023-04-29T10:35:19.611Z,17.10
2023-04-29T10:39:27.537Z,16.90
2023-04-29T10:43:28.732Z,17.10
2023-04-29T10:47:29.900Z,16.90
2023-04-29T10:51:36.873Z,16.70
2023-04-29T10:55:38.161Z,16.70
2023-04-29T10:59:43.148Z,16.90
2023-04-29T11:03:49.614Z,17.20
2023-04-29T11:07:54.907Z,17.30
2023-04-29T11:12:03.650Z,17.20
2023-04-29T11:16:10.007Z,17.10
2023-04-29T11:20:14.330Z,17.50
2023-04-29T11:24:16.640Z,17.50
2023-04-29T11:28:17.931Z,17.50
2023-04-29T11:32:22.544Z,17.60
2023-04-29T11:36:24.520Z,17.30
2023-04-29T11:40:26.186Z,17.70
2023-04-29T11:44:27.400Z,18.10
2023-04-29T11:48:29.668Z,18.60
2023-04-29T11:52:31.632Z,19.30
2023-04-29T11:56:32.827Z,20.20
2023-04-29T12:00:34.855Z,20.50
2023-04-29T12:04:45.135Z,21.60
2023-04-29T12:08:47.663Z,21.00
2023-04-29T12:12:49.591Z,21.90
2023-04-29T12:16:51.506Z,22.50
2023-04-29T12:20:55.298Z,22.70
2023-04-29T12:24:56.798Z,22.50
2023-04-29T12:28:59.204Z,22.10
2023-04-29T12:33:02.047Z,21.50
2023-04-29T12:37:03.418Z,22.70
2023-04-29T12:41:06.526Z,23.10
2023-04-29T12:45:08.325Z,22.20
2023-04-29T12:49:10.703Z,22.30
2023-04-29T12:53:12.831Z,21.30
2023-04-29T12:57:14.459Z,21.40
2023-04-29T13:01:18.460Z,20.60
2023-04-29T13:05:19.132Z,20.70
2023-04-29T13:09:20.337Z,20.20
2023-04-29T13:13:21.534Z,19.70
2023-04-29T13:17:23.166Z,19.50
2023-04-29T13:21:24.422Z,19.00
2023-04-29T13:25:25.579Z,18.70
2023-04-29T13:29:26.889Z,18.60
2023-04-29T13:33:28.079Z,18.40
2023-04-29T13:37:29.295Z,18.00
2023-04-29T13:41:34.484Z,17.90
2023-04-29T13:45:38.901Z,18.10
2023-04-29T14:05:53.595Z,17.40
2023-04-29T14:09:54.934Z,17.30
2023-04-29T14:13:56.427Z,17.20
2023-04-29T14:17:57.651Z,17.50
2023-04-29T14:21:58.882Z,17.70
2023-04-29T14:30:04.345Z,17.60
2023-04-29T14:34:05.662Z,17.60
2023-04-29T14:38:06.942Z,17.50
2023-04-29T14:42:08.175Z,17.50
2023-04-29T14:46:09.635Z,17.40
2023-04-29T14:50:10.928Z,17.20
2023-04-29T14:54:12.572Z,17.40
2023-04-29T14:58:13.849Z,17.20
2023-04-29T15:02:15.115Z,17.20
2023-04-29T15:06:16.773Z,17.10
2023-04-29T15:10:18.039Z,17.20
2023-04-29T15:14:19.274Z,17.50
2023-04-29T15:18:22.342Z,17.60
2023-04-29T15:22:23.507Z,17.60
2023-04-29T15:26:25.491Z,17.40
2023-04-29T15:30:27.107Z,17.20
2023-04-29T15:34:28.260Z,17.20
2023-04-29T15:38:29.648Z,17.30
2023-04-29T15:42:30.847Z,17.20
2023-04-29T15:46:32.086Z,16.80
2023-04-29T15:50:33.222Z,16.40
2023-04-29T15:54:35.199Z,16.20
2023-04-29T15:58:36.485Z,16.30
2023-04-29T16:02:37.674Z,16.40
2023-04-29T16:06:38.898Z,16.50
2023-04-29T16:10:40.262Z,16.40
2023-04-29T16:14:41.441Z,16.40
2023-04-29T16:18:42.649Z,16.30
2023-04-29T16:22:43.842Z,16.40
2023-04-29T16:26:45.069Z,16.20
2023-04-29T16:30:46.168Z,16.10
2023-04-29T16:34:47.627Z,16.00
2023-04-29T16:38:48.814Z,15.80
2023-04-29T16:42:50.490Z,15.80
2023-04-29T16:46:52.830Z,15.70
2023-04-29T16:50:53.967Z,15.60
2023-04-29T16:54:57.093Z,15.60
2023-04-29T16:58:58.393Z,15.70
2023-04-29T17:03:00.258Z,15.60
2023-04-29T17:07:02.349Z,15.70
2023-04-29T17:11:04.220Z,15.60
2023-04-29T17:15:07.021Z,15.70
2023-04-29T17:19:08.481Z,15.60
2023-04-29T17:23:09.652Z,15.50
2023-04-29T17:27:12.970Z,15.60
2023-04-29T17:31:14.668Z,15.40
2023-04-29T17:35:15.825Z,15.30
2023-04-29T17:39:17.305Z,15.20
2023-04-29T17:43:18.444Z,15.40
2023-04-29T17:47:20.923Z,15.30
2023-04-29T17:51:22.036Z,15.50
2023-04-29T17:55:23.450Z,15.50
2023-04-29T17:59:24.664Z,15.40
2023-04-29T18:03:26.543Z,15.30
2023-04-29T18:07:27.879Z,15.20
2023-04-29T18:11:29.037Z,15.10
2023-04-29T18:15:30.168Z,15.00
2023-04-29T18:19:31.391Z,15.00
2023-04-29T18:23:32.527Z,14.90
2023-04-29T18:27:33.627Z,14.90
2023-04-29T18:31:34.939Z,14.80
2023-04-29T18:35:37.145Z,15.00
2023-04-29T18:39:38.318Z,14.90
2023-04-29T18:43:39.353Z,14.90
2023-04-29T18:47:40.579Z,15.00
2023-04-29T18:51:45.302Z,15.00
2023-04-29T18:55:46.587Z,14.90
2023-04-29T18:59:47.758Z,14.80
2023-04-29T19:03:48.954Z,14.70
2023-04-29T19:07:50.242Z,14.70
2023-04-29T19:11:51.407Z,14.70
2023-04-29T19:15:54.327Z,14.60
2023-04-29T19:19:55.928Z,14.30
2023-04-29T19:23:59.145Z,14.30
2023-04-29T19:28:00.326Z,14.30
2023-04-29T19:32:01.497Z,14.40
2023-04-29T19:36:03.443Z,14.50
2023-04-29T19:40:06.049Z,14.60
2023-04-29T19:44:07.149Z,14.70
2023-04-29T19:48:08.352Z,14.50
2023-04-29T19:52:09.464Z,14.40
2023-04-29T19:56:10.712Z,14.40
2023-04-29T20:00:13.868Z,14.40
2023-04-29T20:04:15.068Z,14.50
2023-04-29T20:08:16.251Z,14.50
2023-04-29T20:12:17.409Z,14.30
2023-04-29T20:16:18.603Z,14.30
2023-04-29T20:20:19.762Z,14.30
2023-04-29T20:24:21.004Z,14.40
2023-04-29T20:28:22.177Z,14.40
2023-04-29T20:32:23.566Z,14.30
2023-04-29T20:36:26.826Z,14.30
2023-04-29T20:40:27.999Z,14.20
2023-04-29T20:44:29.286Z,14.30
2023-04-29T20:48:30.446Z,14.30
2023-04-29T20:52:33.541Z,14.30
2023-04-29T20:56:34.691Z,14.20
2023-04-29T21:00:36.550Z,14.20
2023-04-29T21:04:37.837Z,14.20
2023-04-29T21:08:38.950Z,14.20
2023-04-29T21:12:40.247Z,14.20
2023-04-29T21:16:41.928Z,14.20
2023-04-29T21:20:43.119Z,14.20
2023-04-29T21:24:44.279Z,14.30
2023-04-29T21:28:45.638Z,14.30
2023-04-29T21:32:46.823Z,14.40
2023-04-29T21:36:48.218Z,14.40
2023-04-29T21:40:51.041Z,14.50
2023-04-29T21:44:57.826Z,14.60
2023-04-29T21:48:59.902Z,14.60
2023-04-29T21:53:01.049Z,14.60
2023-04-29T21:57:02.241Z,14.50
2023-04-29T22:01:08.313Z,14.50
2023-04-29T22:05:09.569Z,14.50
2023-04-29T22:09:10.773Z,14.60
2023-04-29T22:13:12.116Z,14.40
2023-04-29T22:17:13.721Z,14.30
2023-04-29T22:21:14.979Z,14.20
2023-04-29T22:25:17.361Z,14.20
2023-04-29T22:29:19.420Z,14.10
2023-04-29T22:33:20.586Z,14.20
2023-04-29T22:37:21.764Z,14.20
2023-04-29T22:41:22.930Z,14.20
2023-04-29T22:45:24.214Z,14.10
2023-04-29T22:49:25.869Z,14.10
2023-04-29T22:53:27.079Z,14.00
2023-04-29T22:57:28.255Z,13.80
2023-04-29T23:01:29.473Z,13.70
2023-04-29T23:05:31.627Z,13.80
2023-04-29T23:09:32.809Z,13.70
2023-04-29T23:13:34.007Z,13.70
2023-04-29T23:17:36.796Z,13.70
2023-04-29T23:21:37.919Z,13.60
2023-04-29T23:25:39.100Z,13.70
2023-04-29T23:29:40.795Z,13.70
2023-04-29T23:33:41.990Z,13.70
2023-04-29T23:37:43.157Z,13.70
2023-04-29T23:41:44.516Z,13.80
2023-04-29T23:45:46.546Z,13.70
2023-04-29T23:49:47.662Z,13.70
2023-04-29T23:53:48.839Z,13.70
2023-04-29T23:57:49.999Z,13.60
